Time;durP1;ratioP1;P1;durP2;ratioP2;P2;SDS_P1;SDS_P2;PMS_P1;PMS_P2;Temp;Humidity;BMP_temperature;BMP_pressure;BME280_temperature;BME280_humidity;BME280_pressure;Samples;Min_cycle;Max_cycle;Signal;HPM_P1;HPM_P2
2023/04/14 00:02:05;;;;;;;15.57;8.57;;;3.50;99.90;;;;;;5074653;28;20137;-50
2023/04/14 00:04:32;;;;;;;19.42;9.35;;;3.50;99.90;;;;;;5084557;28;20036;-50
2023/04/14 00:07:00;;;;;;;17.70;9.38;;;3.50;99.90;;;;;;5092614;28;20044;-54
2023/04/14 00:09:26;;;;;;;17.50;9.10;;;3.50;99.90;;;;;;5075382;28;20044;-51
2023/04/14 00:11:53;;;;;;;14.15;8.07;;;3.40;99.90;;;;;;5072018;28;20076;-50
2023/04/14 00:14:20;;;;;;;15.30;8.50;;;3.40;99.90;;;;;;5083957;28;20119;-52
2023/04/14 00:16:46;;;;;;;10.10;6.20;;;3.40;99.90;;;;;;5092548;28;20052;-49
2023/04/14 00:19:13;;;;;;;12.95;7.18;;;3.40;99.90;;;;;;5091136;28;20412;-51
2023/04/14 00:21:40;;;;;;;12.45;7.43;;;3.40;99.90;;;;;;5092535;28;20069;-50
2023/04/14 00:24:07;;;;;;;14.55;7.65;;;3.40;99.90;;;;;;5080035;28;20467;-53
2023/04/14 00:26:33;;;;;;;16.40;8.52;;;3.40;99.90;;;;;;5072065;28;20079;-51
2023/04/14 00:29:00;;;;;;;15.95;8.18;;;3.40;99.90;;;;;;5070707;28;20051;-51
2023/04/14 00:31:28;;;;;;;14.45;8.20;;;3.40;99.90;;;;;;5054337;28;20052;-54
2023/04/14 00:33:54;;;;;;;15.73;8.23;;;3.30;99.90;;;;;;5075886;28;20416;-50
2023/04/14 00:36:22;;;;;;;15.98;8.55;;;3.30;99.90;;;;;;5070872;28;20048;-51
2023/04/14 00:38:48;;;;;;;17.88;9.35;;;3.30;99.90;;;;;;5071141;28;20037;-51
2023/04/14 00:41:15;;;;;;;15.95;8.93;;;3.30;99.90;;;;;;5073711;28;20049;-51
2023/04/14 00:43:42;;;;;;;16.15;9.00;;;3.30;99.90;;;;;;5057108;28;20040;-51
2023/04/14 00:46:09;;;;;;;14.70;7.28;;;3.20;99.90;;;;;;5053603;28;20040;-50
2023/04/14 00:48:36;;;;;;;14.23;7.68;;;3.20;99.90;;;;;;5071422;28;20151;-51
2023/04/14 00:51:03;;;;;;;13.73;7.97;;;3.20;99.90;;;;;;5053354;28;20048;-51
2023/04/14 00:53:31;;;;;;;13.75;7.15;;;3.20;99.90;;;;;;5071010;28;20090;-53
2023/04/14 00:55:59;;;;;;;14.48;7.30;;;3.10;99.90;;;;;;5055410;28;20559;-50
2023/04/14 00:58:26;;;;;;;11.52;6.75;;;3.10;99.90;;;;;;5070120;28;20090;-50
2023/04/14 01:00:54;;;;;;;12.82;7.07;;;3.10;99.90;;;;;;5071442;28;20033;-53
2023/04/14 01:03:23;;;;;;;14.07;6.78;;;3.10;99.90;;;;;;5054122;28;20054;-50
2023/04/14 01:05:50;;;;;;;11.43;6.95;;;3.10;99.90;;;;;;5054581;28;20036;-53
2023/04/14 01:08:19;;;;;;;13.20;7.05;;;3.10;99.90;;;;;;5052993;28;20053;-51
2023/04/14 01:10:54;;;;;;;12.80;6.88;;;3.10;99.90;;;;;;5036858;28;20070;-50
2023/04/14 01:13:21;;;;;;;11.52;6.82;;;3.00;99.90;;;;;;5078616;28;20036;-51
2023/04/14 01:16:01;;;;;;;9.75;5.38;;;3.00;99.90;;;;;;5083326;28;20046;-54
2023/04/14 01:18:41;;;;;;;16.90;7.53;;;3.00;99.90;;;;;;5058555;28;20033;-51
2023/04/14 01:21:25;;;;;;;12.82;6.95;;;2.90;99.90;;;;;;5053362;28;20083;-52
2023/04/14 01:24:10;;;;;;;11.82;6.68;;;2.90;99.90;;;;;;5071259;28;20044;-50
2023/04/14 01:26:38;;;;;;;11.50;6.50;;;2.90;99.90;;;;;;5060434;28;20036;-52
2023/04/14 01:29:14;;;;;;;;;;;3.00;99.90;;;;;;5065063;28;20040;-52
2023/04/14 01:31:52;;;;;;;13.00;7.18;;;2.90;99.90;;;;;;5090397;28;19981;-51
2023/04/14 01:34:28;;;;;;;12.75;7.22;;;2.90;99.90;;;;;;5061181;28;20059;-54
2023/04/14 01:37:07;;;;;;;13.90;7.22;;;2.90;99.90;;;;;;5053636;28;20044;-52
2023/04/14 01:39:39;;;;;;;12.85;6.55;;;2.90;99.90;;;;;;5052838;28;20489;-51
2023/04/14 01:42:10;;;;;;;12.63;6.85;;;2.80;99.90;;;;;;5054767;28;20089;-53
2023/04/14 01:44:39;;;;;;;11.80;6.18;;;2.80;99.90;;;;;;5053430;28;20079;-51
2023/04/14 01:47:09;;;;;;;11.75;6.78;;;2.70;99.90;;;;;;5058616;28;20510;-52
2023/04/14 01:49:39;;;;;;;8.40;4.80;;;2.70;99.90;;;;;;5081608;28;20041;-54
2023/04/14 01:52:10;;;;;;;8.27;4.93;;;2.60;99.90;;;;;;5058825;28;20100;-51
2023/04/14 01:54:40;;;;;;;10.07;5.18;;;2.60;99.90;;;;;;5059529;28;20140;-52
2023/04/14 01:57:10;;;;;;;8.38;5.03;;;2.60;99.90;;;;;;5059957;28;20504;-51
2023/04/14 01:59:41;;;;;;;9.85;5.30;;;2.50;99.90;;;;;;5065784;28;20043;-50
2023/04/14 02:02:12;;;;;;;11.60;5.45;;;2.50;99.90;;;;;;5060825;28;20045;-51
2023/04/14 02:04:41;;;;;;;22.42;6.13;;;2.40;99.90;;;;;;5063959;28;20041;-53
2023/04/14 02:07:11;;;;;;;13.77;7.28;;;2.50;99.90;;;;;;5078228;28;20089;-52
2023/04/14 02:09:41;;;;;;;15.88;8.38;;;2.40;99.90;;;;;;5079158;28;20048;-52
2023/04/14 02:12:10;;;;;;;17.75;8.68;;;2.40;99.90;;;;;;5074840;28;20106;-51
2023/04/14 02:14:41;;;;;;;21.98;9.50;;;2.40;99.90;;;;;;5059374;28;20041;-50
2023/04/14 02:17:11;;;;;;;21.05;10.00;;;2.30;99.90;;;;;;5077252;28;20489;-51
2023/04/14 02:19:40;;;;;;;21.80;10.60;;;2.30;99.90;;;;;;5087754;22;20096;-50
2023/04/14 02:22:06;;;;;;;18.52;9.80;;;2.20;99.90;;;;;;5114998;27;20051;-51
2023/04/14 02:24:33;;;;;;;20.33;9.48;;;2.10;99.90;;;;;;5117019;27;20040;-50
2023/04/14 02:27:12;;;;;;;18.90;9.38;;;2.10;99.90;;;;;;5108250;28;20039;-52
2023/04/14 02:29:44;;;;;;;20.10;9.68;;;2.10;99.90;;;;;;5115595;28;20111;-52
2023/04/14 02:32:21;;;;;;;19.90;10.20;;;2.10;99.90;;;;;;5117253;28;20127;-52
2023/04/14 02:34:59;;;;;;;21.27;10.15;;;2.10;99.90;;;;;;5111619;28;20047;-51
2023/04/14 02:37:33;;;;;;;18.48;9.20;;;2.00;99.90;;;;;;5118414;28;20093;-50
2023/04/14 02:40:13;;;;;;;19.60;9.85;;;1.90;99.90;;;;;;5122496;27;20042;-52
2023/04/14 02:42:44;;;;;;;17.95;9.70;;;1.90;99.90;;;;;;5108372;28;20032;-53
2023/04/14 02:45:16;;;;;;;18.15;8.60;;;1.80;99.90;;;;;;5116271;28;20416;-51
2023/04/14 02:47:46;;;;;;;16.77;8.68;;;1.70;99.90;;;;;;5116907;28;20040;-51
2023/04/14 02:50:17;;;;;;;15.20;7.63;;;1.70;99.90;;;;;;5111025;27;20035;-50
2023/04/14 02:52:55;;;;;;;15.60;8.35;;;1.70;99.90;;;;;;5119905;27;20113;-51
2023/04/14 02:55:27;;;;;;;19.55;9.23;;;1.80;99.90;;;;;;5114526;27;20043;-50
2023/04/14 02:57:54;;;;;;;17.20;8.70;;;1.90;99.90;;;;;;5111479;28;20035;-52
2023/04/14 03:00:23;;;;;;;15.70;8.10;;;1.90;99.90;;;;;;5112895;28;20131;-53
2023/04/14 03:02:53;;;;;;;20.55;8.77;;;1.90;99.90;;;;;;5116232;27;20059;-52
2023/04/14 03:05:20;;;;;;;20.45;9.57;;;1.90;99.90;;;;;;5121736;27;20055;-51
2023/04/14 03:07:59;;;;;;;18.63;8.90;;;2.00;99.90;;;;;;5099711;27;20178;-52
2023/04/14 03:10:26;;;;;;;19.65;9.13;;;2.00;99.90;;;;;;5109792;28;20123;-52
2023/04/14 03:12:55;;;;;;;19.58;8.52;;;1.90;99.90;;;;;;5109904;28;20040;-55
2023/04/14 03:15:24;;;;;;;20.50;9.90;;;1.90;99.90;;;;;;5114071;28;20114;-50
2023/04/14 03:17:55;;;;;;;18.50;8.63;;;1.90;99.90;;;;;;5110972;28;20059;-52
2023/04/14 03:20:25;;;;;;;23.55;10.23;;;2.20;99.90;;;;;;5099070;27;20038;-51
2023/04/14 03:23:00;;;;;;;22.25;9.68;;;1.90;99.90;;;;;;5095772;28;20126;-50
2023/04/14 03:25:37;;;;;;;20.83;9.18;;;1.90;99.90;;;;;;5104366;28;20530;-52
2023/04/14 03:28:13;;;;;;;18.45;9.18;;;1.90;99.90;;;;;;5111460;27;20519;-53
2023/04/14 03:30:47;;;;;;;19.60;9.63;;;1.90;99.90;;;;;;5111744;27;20039;-52
2023/04/14 03:33:21;;;;;;;17.05;8.23;;;1.90;99.90;;;;;;5112697;27;20449;-51
2023/04/14 03:35:49;;;;;;;16.23;8.15;;;1.80;99.90;;;;;;5108255;28;20032;-51
2023/04/14 03:38:17;;;;;;;14.90;7.47;;;1.80;99.90;;;;;;5110451;27;20459;-51
2023/04/14 03:40:46;;;;;;;12.60;6.68;;;1.80;99.90;;;;;;5112418;27;20079;-51
2023/04/14 03:43:21;;;;;;;13.85;6.45;;;1.70;99.90;;;;;;5113754;27;20039;-51
2023/04/14 03:45:53;;;;;;;10.50;5.55;;;1.80;99.90;;;;;;5099415;28;20039;-50
2023/04/14 03:48:25;;;;;;;30.92;9.02;;;1.80;99.90;;;;;;5121354;27;20047;-51
2023/04/14 03:50:53;;;;;;;15.90;7.88;;;1.80;99.90;;;;;;5111771;28;20038;-51
2023/04/14 03:53:21;;;;;;;124.70;13.95;;;1.80;99.90;;;;;;5114791;27;20054;-50
2023/04/14 03:55:50;;;;;;;80.22;11.50;;;1.70;99.90;;;;;;5107904;27;20039;-50
2023/04/14 03:58:19;;;;;;;16.08;8.27;;;1.70;99.90;;;;;;5113511;27;20043;-51
2023/04/14 04:00:48;;;;;;;15.80;7.70;;;1.70;99.90;;;;;;5113978;27;20506;-54
2023/04/14 04:03:16;;;;;;;15.68;7.72;;;1.70;99.90;;;;;;5111924;27;20043;-50
2023/04/14 04:05:44;;;;;;;13.80;7.32;;;1.70;99.90;;;;;;5107315;27;20519;-50
2023/04/14 04:08:12;;;;;;;14.18;6.60;;;1.70;99.90;;;;;;5098516;28;20108;-51
2023/04/14 04:10:41;;;;;;;17.95;8.15;;;1.60;99.90;;;;;;5114202;27;20069;-50
2023/04/14 04:13:18;;;;;;;20.83;8.88;;;0.80;99.90;;;;;;5098465;27;20066;-50
2023/04/14 04:15:48;;;;;;;18.50;8.60;;;1.70;99.90;;;;;;5114886;27;20100;-52
2023/04/14 04:18:17;;;;;;;12.90;5.90;;;1.70;99.90;;;;;;5134060;27;20035;-51
2023/04/14 04:20:45;;;;;;;11.38;4.97;;;1.70;99.90;;;;;;5112050;27;20510;-53
2023/04/14 04:23:15;;;;;;;8.40;4.30;;;1.70;99.90;;;;;;5103355;28;20044;-51
2023/04/14 04:25:42;;;;;;;6.68;3.25;;;1.80;99.90;;;;;;5111121;28;20051;-50
2023/04/14 04:28:17;;;;;;;6.68;3.28;;;1.80;99.90;;;;;;5112807;27;20051;-49
2023/04/14 04:30:46;;;;;;;7.10;3.40;;;1.80;99.90;;;;;;5109395;27;20047;-50
2023/04/14 04:33:14;;;;;;;9.10;4.63;;;1.80;99.90;;;;;;5095025;28;20070;-50
2023/04/14 04:35:42;;;;;;;7.82;3.83;;;1.80;99.90;;;;;;5100669;28;20475;-51
2023/04/14 04:38:10;;;;;;;6.88;3.55;;;1.80;99.90;;;;;;5102424;27;20691;-51
2023/04/14 04:40:39;;;;;;;7.80;3.55;;;1.80;99.90;;;;;;5112351;27;20043;-51
2023/04/14 04:43:17;;;;;;;5.60;3.13;;;1.80;99.90;;;;;;5111478;28;20039;-49
2023/04/14 04:46:03;;;;;;;6.78;3.40;;;1.80;99.90;;;;;;5110501;27;20054;-50
2023/04/14 04:48:30;;;;;;;3.13;1.20;;;1.80;99.90;;;;;;5109636;27;20527;-53
2023/04/14 04:50:57;;;;;;;1.52;1.00;;;1.80;99.90;;;;;;5117005;27;20492;-50
2023/04/14 04:53:24;;;;;;;1.20;0.75;;;1.70;99.90;;;;;;5131194;27;20441;-51
2023/04/14 04:55:50;;;;;;;1.55;1.00;;;1.70;99.90;;;;;;5131099;27;20099;-52
2023/04/14 04:58:17;;;;;;;4.28;1.17;;;1.70;99.90;;;;;;5132217;27;20047;-52
2023/04/14 05:00:44;;;;;;;2.30;0.75;;;1.70;99.90;;;;;;5130727;27;20061;-51
2023/04/14 05:03:11;;;;;;;2.22;1.20;;;1.60;99.90;;;;;;5131863;27;20064;-52
2023/04/14 05:05:37;;;;;;;1.58;0.75;;;1.60;99.90;;;;;;5131393;27;20054;-53
2023/04/14 05:08:04;;;;;;;1.50;0.75;;;1.70;99.90;;;;;;5132849;27;20058;-53
2023/04/14 05:10:35;;;;;;;1.45;0.77;;;1.60;99.90;;;;;;5129793;27;20119;-50
2023/04/14 05:13:02;;;;;;;1.92;1.00;;;1.60;99.90;;;;;;5132232;27;20031;-54
2023/04/14 05:15:29;;;;;;;1.73;1.00;;;1.70;99.90;;;;;;5132074;27;20035;-53
2023/04/14 05:17:57;;;;;;;0.50;0.40;;;1.70;99.90;;;;;;5113600;27;20043;-51
2023/04/14 05:20:24;;;;;;;1.30;0.43;;;1.70;99.90;;;;;;5130014;27;20080;-51
2023/04/14 05:22:52;;;;;;;1.08;0.75;;;1.70;99.90;;;;;;5131843;27;20092;-54
2023/04/14 05:25:18;;;;;;;2.08;0.68;;;1.70;99.90;;;;;;5128422;27;20064;-52
2023/04/14 05:27:45;;;;;;;1.23;0.50;;;1.80;99.90;;;;;;5130083;27;20031;-51
2023/04/14 05:30:12;;;;;;;3.05;0.80;;;1.80;99.90;;;;;;5129300;27;20077;-50
2023/04/14 05:32:39;;;;;;;1.15;0.68;;;1.70;99.90;;;;;;5131716;27;20035;-52
2023/04/14 05:35:06;;;;;;;1.45;0.47;;;1.80;99.90;;;;;;5131195;27;20075;-55
2023/04/14 05:37:33;;;;;;;1.52;0.77;;;1.80;99.90;;;;;;5130584;27;20079;-50
2023/04/14 05:40:02;;;;;;;1.60;1.00;;;1.80;99.90;;;;;;5129478;27;20053;-51
2023/04/14 05:42:51;;;;;;;;;;;1.90;99.90;;;;;;5131655;27;20046;-55
2023/04/14 05:45:19;;;;;;;;;;;1.90;99.90;;;;;;5122955;28;19989;-50
2023/04/14 05:47:45;;;;;;;1.30;0.68;;;1.90;99.90;;;;;;5110145;28;19976;-50
2023/04/14 05:50:15;;;;;;;1.75;0.52;;;1.90;99.90;;;;;;5117646;28;20043;-50
2023/04/14 05:52:42;;;;;;;2.55;1.00;;;1.90;99.90;;;;;;5111185;28;20036;-51
2023/04/14 05:55:09;;;;;;;1.33;0.90;;;1.80;99.90;;;;;;5112558;28;20043;-51
2023/04/14 05:57:36;;;;;;;;;;;1.80;99.90;;;;;;5132375;28;20039;-50
2023/04/14 06:00:03;;;;;;;16.40;7.45;;;1.80;99.90;;;;;;5130601;28;20064;-50
2023/04/14 06:02:38;;;;;;;24.50;10.65;;;1.80;99.90;;;;;;5132025;28;20050;-51
2023/04/14 06:05:06;;;;;;;11.32;5.75;;;1.70;99.90;;;;;;5125035;28;20035;-50
2023/04/14 06:07:33;;;;;;;8.93;3.65;;;1.60;99.90;;;;;;5120187;28;20074;-50
2023/04/14 06:10:00;;;;;;;5.65;3.00;;;1.60;99.90;;;;;;5111779;28;20039;-52
2023/04/14 06:12:27;;;;;;;3.47;2.30;;;1.60;99.90;;;;;;5130668;28;20050;-50
2023/04/14 06:14:54;;;;;;;5.30;3.38;;;1.70;99.90;;;;;;5128089;28;20043;-52
2023/04/14 06:17:21;;;;;;;7.15;4.70;;;1.80;99.90;;;;;;5129673;28;20092;-52
2023/04/14 06:19:48;;;;;;;10.13;5.75;;;1.80;99.90;;;;;;5129755;28;20061;-51
2023/04/14 06:22:18;;;;;;;7.53;4.32;;;1.90;99.90;;;;;;5130397;28;20559;-51
2023/04/14 06:24:45;;;;;;;20.60;9.25;;;2.00;99.90;;;;;;5131486;28;20047;-50
2023/04/14 06:27:12;;;;;;;29.48;14.88;;;2.10;99.90;;;;;;5128811;28;20070;-50
2023/04/14 06:29:39;;;;;;;28.42;12.95;;;2.00;99.90;;;;;;5130759;28;20074;-50
2023/04/14 06:32:06;;;;;;;16.63;7.78;;;2.00;99.90;;;;;;5131876;27;20063;-50
2023/04/14 06:34:33;;;;;;;18.35;7.63;;;2.10;99.90;;;;;;5134243;27;20122;-51
2023/04/14 06:37:00;;;;;;;14.50;6.28;;;2.10;99.90;;;;;;5135590;27;20088;-50
2023/04/14 06:39:27;;;;;;;;;;;2.10;99.90;;;;;;5135710;27;20039;-52
2023/04/14 06:41:53;;;;;;;14.57;6.20;;;2.10;99.90;;;;;;5116645;27;20439;-52
2023/04/14 06:44:20;;;;;;;18.08;8.13;;;2.10;99.90;;;;;;5126896;27;20070;-51
2023/04/14 06:46:47;;;;;;;11.38;6.20;;;2.00;99.90;;;;;;5132229;27;20074;-51
2023/04/14 06:49:15;;;;;;;7.93;4.15;;;2.00;99.90;;;;;;5134593;27;20092;-50
2023/04/14 06:51:42;;;;;;;6.63;3.10;;;1.90;99.90;;;;;;5133982;27;20047;-52
2023/04/14 06:54:09;;;;;;;11.05;7.60;;;1.90;99.90;;;;;;5134109;27;20157;-52
2023/04/14 06:56:35;;;;;;;14.85;7.55;;;2.00;99.90;;;;;;5133249;27;20070;-52
2023/04/14 06:59:02;;;;;;;21.38;11.50;;;2.00;99.90;;;;;;5134443;27;20078;-53
2023/04/14 07:01:29;;;;;;;17.88;10.23;;;2.10;99.90;;;;;;5135141;27;20314;-52
2023/04/14 07:03:55;;;;;;;26.17;12.45;;;2.10;99.90;;;;;;5131497;27;20054;-50
2023/04/14 07:06:23;;;;;;;25.67;12.50;;;2.10;99.90;;;;;;5134920;27;20079;-51
2023/04/14 07:08:49;;;;;;;;;;;2.20;99.90;;;;;;5134067;27;20441;-53
2023/04/14 07:11:16;;;;;;;16.67;9.27;;;2.20;99.90;;;;;;5134969;27;19920;-51
2023/04/14 07:13:43;;;;;;;21.15;10.70;;;2.20;99.90;;;;;;5133668;27;20035;-55
2023/04/14 07:16:10;;;;;;;42.72;11.20;;;2.30;99.90;;;;;;5134659;27;20062;-53
2023/04/14 07:18:36;;;;;;;35.00;8.50;;;2.30;99.90;;;;;;5132192;27;20035;-51
2023/04/14 07:21:03;;;;;;;20.48;7.13;;;2.30;99.90;;;;;;5134534;27;20039;-51
2023/04/14 07:23:32;;;;;;;15.82;7.65;;;2.20;99.90;;;;;;5133810;27;20035;-52
2023/04/14 07:25:59;;;;;;;18.05;10.63;;;2.20;99.90;;;;;;5134967;27;20070;-51
2023/04/14 07:28:27;;;;;;;18.50;11.25;;;2.20;99.90;;;;;;5132828;27;20084;-51
2023/04/14 07:30:53;;;;;;;17.80;10.00;;;2.20;99.90;;;;;;5134627;27;20512;-52
2023/04/14 07:33:24;;;;;;;27.40;14.52;;;2.30;99.90;;;;;;5133321;27;20472;-51
2023/04/14 07:35:51;;;;;;;27.05;12.75;;;2.30;99.90;;;;;;5134418;27;20479;-52
2023/04/14 07:38:28;;;;;;;;;;;2.30;99.90;;;;;;5133609;27;20051;-51
2023/04/14 07:40:55;;;;;;;20.75;10.52;;;2.30;99.90;;;;;;5134447;27;19927;-51
2023/04/14 07:43:22;;;;;;;13.60;7.20;;;2.20;99.90;;;;;;5131715;27;20054;-53
2023/04/14 07:45:50;;;;;;;;;;;2.20;99.90;;;;;;5134583;27;20039;-50
2023/04/14 07:48:20;;;;;;;24.50;9.95;;;2.30;99.90;;;;;;5133258;27;19923;-50
2023/04/14 07:50:48;;;;;;;21.85;12.02;;;2.30;99.90;;;;;;5134357;27;20126;-51
2023/04/14 07:53:15;;;;;;;23.83;12.95;;;2.30;99.90;;;;;;5106729;27;20057;-52
2023/04/14 07:55:42;;;;;;;20.85;12.07;;;2.30;99.90;;;;;;5130279;27;20111;-51
2023/04/14 07:58:08;;;;;;;21.95;12.88;;;2.40;99.90;;;;;;5105287;27;20079;-54
2023/04/14 08:00:35;;;;;;;19.38;11.77;;;2.30;99.90;;;;;;5131088;27;20361;-52
2023/04/14 08:03:02;;;;;;;13.60;7.53;;;2.30;99.90;;;;;;5120156;27;20043;-50
2023/04/14 08:05:29;;;;;;;18.58;10.52;;;2.30;99.90;;;;;;5137816;27;20092;-51
2023/04/14 08:07:55;;;;;;;26.88;11.32;;;2.40;99.90;;;;;;5133759;27;20487;-51
2023/04/14 08:10:22;;;;;;;14.73;7.28;;;2.40;99.90;;;;;;5133048;27;20104;-51
2023/04/14 08:12:49;;;;;;;9.27;4.22;;;2.50;99.90;;;;;;5133639;27;20039;-51
2023/04/14 08:15:15;;;;;;;9.95;4.53;;;2.50;99.90;;;;;;5132198;27;20043;-50
2023/04/14 08:17:42;;;;;;;4.82;2.80;;;2.70;99.90;;;;;;5133543;27;20089;-51
2023/04/14 08:20:09;;;;;;;4.22;3.03;;;2.90;99.90;;;;;;5139861;22;20554;-52
2023/04/14 08:23:32;;;;;;;6.78;4.10;;;3.00;99.90;;;;;;5110799;27;20047;-56
2023/04/14 08:25:59;;;;;;;5.72;3.35;;;3.10;99.90;;;;;;5121388;27;20067;-51
2023/04/14 08:28:27;;;;;;;4.43;2.33;;;2.90;99.90;;;;;;5115716;27;20039;-52
2023/04/14 08:30:54;;;;;;;4.43;2.72;;;2.60;99.90;;;;;;5115991;27;20040;-51
2023/04/14 08:33:20;;;;;;;5.60;2.40;;;2.50;99.90;;;;;;5124210;27;20050;-51
2023/04/14 08:35:47;;;;;;;3.97;2.60;;;2.60;99.90;;;;;;5112761;28;20063;-50
2023/04/14 08:38:25;;;;;;;9.57;5.10;;;2.70;99.90;;;;;;5112165;28;20039;-52
2023/04/14 08:40:55;;;;;;;5.32;3.40;;;2.80;99.90;;;;;;5129411;27;20104;-51
2023/04/14 08:43:22;;;;;;;4.70;2.53;;;2.80;99.90;;;;;;5127063;27;20494;-54
2023/04/14 08:45:52;;;;;;;5.35;3.40;;;2.90;99.90;;;;;;5116484;27;20036;-52
2023/04/14 08:48:20;;;;;;;4.72;2.58;;;3.10;99.90;;;;;;5111857;28;20044;-52
2023/04/14 08:51:11;;;;;;;4.68;2.97;;;3.10;99.90;;;;;;5112449;27;20423;-51
2023/04/14 08:53:44;;;;;;;4.57;3.30;;;3.30;99.90;;;;;;5121416;27;20455;-50
2023/04/14 08:56:15;;;;;;;4.40;3.13;;;3.30;99.90;;;;;;5111357;28;20047;-52
2023/04/14 08:58:42;;;;;;;4.25;2.70;;;3.30;99.90;;;;;;5111505;27;20040;-50
2023/04/14 09:01:08;;;;;;;9.23;3.38;;;3.40;99.90;;;;;;5111922;28;20097;-50
2023/04/14 09:03:36;;;;;;;8.15;3.50;;;3.30;99.90;;;;;;5111282;28;20117;-50
2023/04/14 09:06:04;;;;;;;13.02;5.22;;;3.40;99.90;;;;;;5112391;28;20058;-52
2023/04/14 09:08:32;;;;;;;9.07;4.93;;;3.40;99.90;;;;;;5115129;27;20047;-51
2023/04/14 09:11:03;;;;;;;12.77;5.43;;;3.40;99.90;;;;;;5120119;27;20435;-53
2023/04/14 09:13:30;;;;;;;15.52;6.90;;;3.40;99.90;;;;;;5110879;28;20395;-51
2023/04/14 09:15:58;;;;;;;;;;;3.50;99.90;;;;;;5094632;28;20050;-51
2023/04/14 09:18:26;;;;;;;11.82;4.65;;;3.70;99.90;;;;;;5115733;27;19964;-51
2023/04/14 09:20:54;;;;;;;11.43;5.43;;;3.80;99.90;;;;;;5114934;27;20032;-51
2023/04/14 09:23:41;;;;;;;7.43;3.83;;;3.80;99.90;;;;;;5111290;28;20043;-50
2023/04/14 09:26:09;;;;;;;6.10;3.58;;;3.70;99.90;;;;;;5111432;27;20035;-51
2023/04/14 09:28:36;;;;;;;9.50;5.07;;;3.80;99.90;;;;;;5119980;27;20484;-51
2023/04/14 09:31:03;;;;;;;;;;;3.70;99.90;;;;;;5111988;28;20051;-52
2023/04/14 09:33:30;;;;;;;15.80;7.72;;;3.70;99.90;;;;;;5111779;28;20328;-52
2023/04/14 09:35:57;;;;;;;9.50;4.75;;;3.80;99.90;;;;;;5111330;28;20126;-52
2023/04/14 09:38:37;;;;;;;6.63;3.25;;;3.90;99.90;;;;;;5118644;27;20120;-51
2023/04/14 09:41:07;;;;;;;21.73;8.10;;;3.90;99.90;;;;;;5112105;28;20451;-52
2023/04/14 09:43:35;;;;;;;11.40;4.82;;;4.00;99.90;;;;;;5117838;28;20059;-51
2023/04/14 09:46:07;;;;;;;6.22;2.88;;;4.00;99.90;;;;;;5110753;28;20055;-50
2023/04/14 09:48:36;;;;;;;4.95;2.72;;;4.10;99.90;;;;;;5110979;28;20035;-50
2023/04/14 09:51:09;;;;;;;5.75;2.95;;;4.00;99.90;;;;;;5114015;28;20488;-51
2023/04/14 09:53:37;;;;;;;2.15;1.70;;;4.20;99.90;;;;;;5132415;28;20063;-52
2023/04/14 09:56:06;;;;;;;1.55;1.00;;;4.00;99.90;;;;;;5124146;28;20108;-52
2023/04/14 09:58:38;;;;;;;1.65;1.08;;;4.10;99.90;;;;;;5117182;28;20139;-51
2023/04/14 10:01:13;;;;;;;2.83;1.70;;;4.10;99.90;;;;;;5111341;28;20032;-55
2023/04/14 10:03:45;;;;;;;1.67;1.50;;;4.20;99.90;;;;;;5111103;28;20071;-50
2023/04/14 10:06:20;;;;;;;2.42;1.70;;;4.20;99.90;;;;;;5122896;28;20487;-52
2023/04/14 10:08:52;;;;;;;9.30;2.00;;;4.30;99.90;;;;;;5134832;27;20047;-51
2023/04/14 10:11:26;;;;;;;2.53;1.50;;;4.40;99.90;;;;;;5129010;27;20099;-52
2023/04/14 10:13:59;;;;;;;3.35;1.80;;;4.60;99.90;;;;;;5118607;27;20092;-52
2023/04/14 10:16:26;;;;;;;2.92;2.20;;;4.70;99.90;;;;;;5115107;28;20511;-51
2023/04/14 10:18:54;;;;;;;5.38;2.53;;;4.60;99.90;;;;;;5114645;27;20047;-54
2023/04/14 10:21:23;;;;;;;4.28;2.50;;;4.60;99.90;;;;;;5127598;27;20522;-52
2023/04/14 10:23:51;;;;;;;5.22;2.80;;;4.60;99.90;;;;;;5136042;27;20068;-51
2023/04/14 10:26:18;;;;;;;7.15;3.53;;;4.70;99.90;;;;;;5123671;27;20066;-51
2023/04/14 10:28:46;;;;;;;;;;;4.70;99.90;;;;;;5123953;27;20047;-51
2023/04/14 10:31:36;;;;;;;5.68;2.72;;;4.70;99.90;;;;;;5126079;27;19978;-50
2023/04/14 10:34:10;;;;;;;3.78;2.42;;;4.80;99.90;;;;;;5120700;27;20046;-54
2023/04/14 10:36:38;;;;;;;7.47;2.92;;;4.80;99.90;;;;;;5126195;27;20495;-51
2023/04/14 10:39:05;;;;;;;;;;;4.80;99.90;;;;;;5124034;27;20399;-55
2023/04/14 10:41:48;;;;;;;6.82;3.50;;;4.70;99.90;;;;;;5111115;28;20572;-54
2023/04/14 10:44:34;;;;;;;7.72;3.72;;;4.60;99.90;;;;;;5120226;27;20503;-51
2023/04/14 10:47:03;;;;;;;7.88;3.80;;;4.50;99.90;;;;;;5115893;27;20483;-50
2023/04/14 10:49:39;;;;;;;8.63;4.05;;;4.50;99.90;;;;;;5123224;27;20058;-51
2023/04/14 10:52:28;;;;;;;10.93;4.97;;;4.50;99.90;;;;;;5123354;27;20043;-53
2023/04/14 10:55:06;;;;;;;9.13;5.32;;;4.40;99.90;;;;;;5117992;27;20031;-52
2023/04/14 10:57:41;;;;;;;9.35;5.13;;;4.40;99.90;;;;;;5116433;27;20035;-51
2023/04/14 11:00:25;;;;;;;8.57;4.88;;;4.50;99.90;;;;;;5107523;27;20055;-51
2023/04/14 11:03:09;;;;;;;9.07;4.60;;;4.50;99.90;;;;;;5121397;27;20097;-50
2023/04/14 11:05:47;;;;;;;8.40;4.75;;;4.50;99.90;;;;;;5127333;27;20028;-50
2023/04/14 11:08:25;;;;;;;8.32;4.75;;;4.50;99.90;;;;;;5122350;27;20381;-51
2023/04/14 11:11:05;;;;;;;10.18;5.00;;;4.50;99.90;;;;;;5114945;27;20067;-52
2023/04/14 11:13:33;;;;;;;8.45;4.80;;;4.30;99.90;;;;;;5120885;27;20036;-51
2023/04/14 11:16:01;;;;;;;8.38;5.22;;;4.30;99.90;;;;;;5123619;27;20119;-51
2023/04/14 11:18:32;;;;;;;6.70;4.75;;;4.30;99.90;;;;;;5116014;27;20119;-52
2023/04/14 11:21:14;;;;;;;10.05;5.55;;;4.20;99.90;;;;;;5119212;27;20031;-51
2023/04/14 11:23:41;;;;;;;8.68;5.15;;;4.20;99.90;;;;;;5107554;27;20039;-52
2023/04/14 11:26:09;;;;;;;10.98;5.03;;;4.10;99.90;;;;;;5123515;27;20047;-51
2023/04/14 11:28:42;;;;;;;7.80;4.72;;;4.10;99.90;;;;;;5118434;27;20089;-50
2023/04/14 11:31:12;;;;;;;7.35;5.13;;;4.00;99.90;;;;;;5117163;27;20122;-51
2023/04/14 11:33:40;;;;;;;8.60;4.93;;;4.00;99.90;;;;;;5125372;27;20445;-50
2023/04/14 11:36:09;;;;;;;9.85;4.82;;;4.00;99.90;;;;;;5119626;27;20047;-52
2023/04/14 11:38:39;;;;;;;7.28;5.05;;;4.00;99.90;;;;;;5113329;28;20580;-50
2023/04/14 11:41:07;;;;;;;6.90;4.78;;;4.00;99.90;;;;;;5132849;27;20050;-51
2023/04/14 11:43:36;;;;;;;7.85;4.30;;;4.00;99.90;;;;;;5129758;27;20070;-55
2023/04/14 11:46:04;;;;;;;7.57;4.85;;;4.80;99.90;;;;;;5123920;27;20063;-50
2023/04/14 11:48:31;;;;;;;6.00;4.47;;;4.20;99.90;;;;;;5126604;27;20510;-52
2023/04/14 11:51:02;;;;;;;8.77;5.10;;;4.40;99.90;;;;;;5134226;27;20039;-51
2023/04/14 11:53:29;;;;;;;5.60;4.35;;;4.50;99.90;;;;;;5125674;27;20082;-53
2023/04/14 11:55:56;;;;;;;5.25;4.00;;;4.50;99.90;;;;;;5113377;28;20050;-51
2023/04/14 11:58:25;;;;;;;6.43;4.30;;;4.40;99.90;;;;;;5113103;28;20031;-54
2023/04/14 12:00:53;;;;;;;5.88;4.07;;;4.20;99.90;;;;;;5112770;27;20074;-51
2023/04/14 12:03:26;;;;;;;9.20;4.95;;;4.20;99.90;;;;;;5121225;27;20043;-52
2023/04/14 12:06:00;;;;;;;9.88;6.32;;;4.30;99.90;;;;;;5112594;27;20047;-52
2023/04/14 12:08:31;;;;;;;14.18;8.60;;;4.40;99.90;;;;;;5110269;28;20039;-50
2023/04/14 12:11:14;;;;;;;17.10;10.23;;;4.50;99.90;;;;;;5112228;28;20093;-51
2023/04/14 12:13:42;;;;;;;17.08;8.02;;;4.60;99.90;;;;;;5113526;28;20043;-50
2023/04/14 12:16:10;;;;;;;11.30;5.10;;;4.60;99.90;;;;;;5113008;27;20047;-52
2023/04/14 12:18:38;;;;;;;7.47;4.72;;;4.80;99.90;;;;;;5119362;27;20039;-51
2023/04/14 12:21:05;;;;;;;7.22;4.82;;;4.80;99.90;;;;;;5133292;27;20087;-52
2023/04/14 12:23:37;;;;;;;7.15;4.63;;;4.70;99.90;;;;;;5124901;27;20031;-54
2023/04/14 12:26:11;;;;;;;7.85;4.78;;;4.70;99.90;;;;;;5112666;28;20081;-50
2023/04/14 12:28:40;;;;;;;7.07;4.60;;;4.70;99.90;;;;;;5112323;28;20048;-50
2023/04/14 12:31:07;;;;;;;6.18;4.60;;;4.80;99.90;;;;;;5113239;27;20507;-51
2023/04/14 12:33:34;;;;;;;5.85;4.10;;;4.70;99.90;;;;;;5118830;27;20424;-50
2023/04/14 12:36:11;;;;;;;7.63;4.10;;;4.70;99.90;;;;;;5112707;28;20081;-52
2023/04/14 12:38:38;;;;;;;5.80;3.72;;;4.80;99.90;;;;;;5112528;28;20048;-51
2023/04/14 12:41:05;;;;;;;6.85;4.47;;;5.10;99.90;;;;;;5121173;27;20074;-51
2023/04/14 12:43:33;;;;;;;5.32;3.75;;;5.50;99.90;;;;;;5112775;28;20044;-51
2023/04/14 12:46:02;;;;;;;5.95;4.22;;;5.90;99.90;;;;;;5118927;27;20096;-51
2023/04/14 12:48:43;;;;;;;6.47;4.30;;;6.20;99.90;;;;;;5118913;27;20543;-52
2023/04/14 12:51:15;;;;;;;6.18;3.72;;;6.40;99.90;;;;;;5111061;28;20118;-50
2023/04/14 12:53:43;;;;;;;5.60;2.97;;;6.50;99.90;;;;;;5112503;28;20047;-48
2023/04/14 12:56:12;;;;;;;5.93;3.60;;;6.50;99.90;;;;;;5120130;27;20039;-50
2023/04/14 12:58:41;;;;;;;8.55;4.10;;;6.40;99.90;;;;;;5111516;27;20078;-51
2023/04/14 13:01:10;;;;;;;8.95;4.25;;;6.40;99.90;;;;;;5120196;27;20078;-51
2023/04/14 13:03:54;;;;;;;8.27;3.90;;;6.50;99.90;;;;;;5111146;28;20048;-51
2023/04/14 13:06:23;;;;;;;7.68;4.05;;;6.40;99.90;;;;;;5112234;28;20050;-51
2023/04/14 13:08:53;;;;;;;6.18;2.40;;;6.30;99.90;;;;;;5111697;27;20046;-51